createdAt,value
2023-05-16T00:02:06.675Z,48.08
2023-05-16T00:05:10.570Z,48.20
2023-05-16T00:08:12.403Z,48.30
2023-05-16T00:11:13.998Z,48.30
2023-05-16T00:14:15.771Z,48.33
2023-05-16T00:17:17.662Z,48.34
2023-05-16T00:20:23.466Z,48.37
2023-05-16T00:23:25.516Z,48.43
2023-05-16T00:26:27.135Z,48.37
2023-05-16T00:29:28.738Z,48.54
2023-05-16T00:32:30.370Z,48.37
2023-05-16T00:35:31.922Z,48.40
2023-05-16T00:38:33.724Z,48.55
2023-05-16T00:41:35.419Z,48.55
2023-05-16T00:44:36.965Z,48.54
2023-05-16T00:47:38.574Z,48.64
2023-05-16T00:50:40.578Z,48.69
2023-05-16T00:53:42.412Z,48.57
2023-05-16T00:56:44.143Z,48.62
2023-05-16T00:59:46.913Z,48.73
2023-05-16T01:02:48.908Z,48.67
2023-05-16T01:05:50.634Z,48.81
2023-05-16T01:08:52.232Z,48.78
2023-05-16T01:12:06.412Z,48.68
2023-05-16T01:15:19.813Z,48.85
2023-05-16T01:18:29.228Z,48.74
2023-05-16T01:22:00.006Z,48.86
2023-05-16T01:25:01.511Z,48.84
2023-05-16T01:28:04.214Z,48.82
2023-05-16T01:31:06.092Z,48.82
2023-05-16T01:34:08.125Z,49.09
2023-05-16T01:37:19.777Z,49.06
2023-05-16T01:40:42.929Z,49.06
2023-05-16T01:43:48.507Z,48.94
2023-05-16T01:46:56.779Z,48.93
2023-05-16T01:50:15.725Z,48.91
2023-05-16T01:53:22.762Z,48.90
2023-05-16T01:56:26.825Z,49.18
2023-05-16T01:59:28.949Z,49.26
2023-05-16T02:02:31.717Z,49.18
2023-05-16T02:05:33.423Z,49.25
2023-05-16T02:08:35.112Z,49.05
2023-05-16T02:11:36.706Z,49.18
2023-05-16T02:14:38.251Z,49.07
2023-05-16T02:17:39.904Z,49.26
2023-05-16T02:20:41.533Z,49.17
2023-05-16T02:23:43.280Z,49.31
2023-05-16T02:26:44.837Z,49.35
2023-05-16T02:29:46.356Z,49.35
2023-05-16T02:32:49.267Z,49.31
2023-05-16T02:35:50.859Z,49.13
2023-05-16T02:38:52.506Z,49.27
2023-05-16T02:41:54.047Z,49.26
2023-05-16T02:44:55.585Z,49.24
2023-05-16T02:47:57.231Z,49.20
2023-05-16T02:50:58.814Z,49.20
2023-05-16T02:54:01.192Z,49.26
2023-05-16T02:57:02.808Z,49.38
2023-05-16T03:00:06.152Z,49.18
2023-05-16T03:03:08.541Z,49.40
2023-05-16T03:06:10.217Z,49.20
2023-05-16T03:09:11.775Z,49.21
2023-05-16T03:12:13.407Z,49.52
2023-05-16T03:15:15.034Z,49.32
2023-05-16T03:18:16.681Z,49.25
2023-05-16T03:21:18.227Z,49.26
2023-05-16T03:24:21.745Z,49.40
2023-05-16T03:27:23.413Z,49.12
2023-05-16T03:30:25.834Z,49.36
2023-05-16T03:33:27.338Z,49.40
2023-05-16T03:36:28.984Z,49.28
2023-05-16T03:39:30.515Z,49.35
2023-05-16T03:42:32.368Z,49.26
2023-05-16T03:45:34.043Z,49.28
2023-05-16T03:48:35.683Z,49.30
2023-05-16T03:51:37.412Z,49.29
2023-05-16T03:54:38.918Z,49.36
2023-05-16T03:57:41.254Z,49.48
2023-05-16T04:00:42.853Z,49.22
2023-05-16T04:03:44.607Z,49.38
2023-05-16T04:06:46.166Z,49.56
2023-05-16T04:09:47.694Z,49.59
2023-05-16T04:12:49.349Z,49.42
2023-05-16T04:15:50.930Z,49.36
2023-05-16T04:18:53.027Z,49.50
2023-05-16T04:21:54.639Z,49.50
2023-05-16T04:24:57.114Z,49.32
2023-05-16T04:27:58.668Z,49.46
2023-05-16T04:31:02.072Z,49.62
2023-05-16T04:34:03.857Z,49.39
2023-05-16T04:37:09.572Z,49.30
2023-05-16T04:40:13.085Z,49.54
2023-05-16T04:43:14.675Z,49.47
2023-05-16T04:46:16.312Z,49.49
2023-05-16T04:49:18.192Z,49.59
2023-05-16T04:52:19.718Z,49.61
2023-05-16T04:55:21.361Z,49.39
2023-05-16T04:58:24.270Z,49.62
2023-05-16T05:01:25.911Z,49.61
2023-05-16T05:04:27.575Z,49.56
2023-05-16T05:07:29.271Z,49.44
2023-05-16T05:10:31.340Z,49.60
2023-05-16T05:13:32.894Z,49.53
2023-05-16T05:16:34.925Z,49.98
2023-05-16T05:19:36.602Z,49.47
2023-05-16T05:22:38.267Z,49.42
2023-05-16T05:25:39.967Z,49.71
2023-05-16T05:28:47.793Z,49.55
2023-05-16T05:31:52.434Z,49.47
2023-05-16T05:34:54.179Z,49.68
2023-05-16T05:37:55.738Z,49.53
2023-05-16T05:40:57.531Z,49.43
2023-05-16T05:43:59.100Z,49.52
2023-05-16T05:47:00.869Z,49.42
2023-05-16T05:50:04.590Z,49.34
2023-05-16T05:53:06.351Z,49.57
2023-05-16T05:56:08.001Z,49.51
2023-05-16T05:59:09.615Z,49.47
2023-05-16T06:02:11.786Z,49.69
2023-05-16T06:05:13.418Z,49.49
2023-05-16T06:08:15.037Z,49.57
2023-05-16T06:11:16.584Z,49.51
2023-05-16T06:14:18.225Z,49.74
2023-05-16T06:17:19.820Z,49.79
2023-05-16T06:20:21.490Z,49.59
2023-05-16T06:23:23.028Z,49.54
2023-05-16T06:26:24.813Z,49.40
2023-05-16T06:29:26.422Z,49.45
2023-05-16T06:32:28.064Z,49.48
2023-05-16T06:35:29.842Z,49.43
2023-05-16T06:38:31.595Z,49.25
2023-05-16T06:41:33.175Z,49.54
2023-05-16T06:44:34.954Z,49.52
2023-05-16T06:47:36.648Z,49.35
2023-05-16T06:50:38.338Z,49.45
2023-05-16T06:53:39.985Z,49.36
2023-05-16T06:56:41.574Z,49.37
2023-05-16T06:59:43.487Z,49.23
2023-05-16T07:02:45.150Z,49.20
2023-05-16T07:05:46.851Z,49.25
2023-05-16T07:08:48.494Z,49.13
2023-05-16T07:11:50.055Z,49.03
2023-05-16T07:14:51.681Z,49.32
2023-05-16T07:17:53.288Z,49.20
2023-05-16T07:20:54.968Z,49.05
2023-05-16T07:23:57.656Z,49.11
2023-05-16T07:26:59.262Z,49.11
2023-05-16T07:30:01.031Z,49.19
2023-05-16T07:33:02.657Z,49.18
2023-05-16T07:36:16.308Z,49.20
2023-05-16T07:39:19.079Z,49.24
2023-05-16T07:42:20.778Z,49.17
2023-05-16T07:45:22.445Z,49.14
2023-05-16T07:48:24.006Z,49.13
2023-05-16T07:51:25.579Z,49.06
2023-05-16T07:54:27.146Z,49.01
2023-05-16T07:57:29.126Z,48.97
2023-05-16T08:00:30.894Z,49.09
2023-05-16T08:03:32.680Z,48.97
2023-05-16T08:06:34.680Z,48.96
2023-05-16T08:09:36.309Z,49.04
2023-05-16T08:12:38.335Z,48.80
2023-05-16T08:15:40.053Z,48.88
2023-05-16T08:18:42.632Z,48.76
2023-05-16T08:21:44.246Z,49.01
2023-05-16T08:24:46.050Z,48.93
2023-05-16T08:27:49.678Z,48.87
2023-05-16T08:30:51.262Z,48.75
2023-05-16T08:33:52.863Z,48.90
2023-05-16T08:36:54.872Z,48.95
2023-05-16T08:39:56.490Z,48.79
2023-05-16T08:42:58.364Z,48.56
2023-05-16T08:46:00.004Z,48.71
2023-05-16T08:49:04.617Z,48.58
2023-05-16T08:52:08.888Z,48.60
2023-05-16T08:55:12.115Z,48.41
2023-05-16T08:58:14.908Z,48.38
2023-05-16T09:01:16.929Z,48.35
2023-05-16T09:04:19.087Z,48.26
2023-05-16T09:07:21.017Z,48.05
2023-05-16T09:10:22.782Z,48.20
2023-05-16T09:13:27.447Z,48.15
2023-05-16T09:16:29.061Z,48.19
2023-05-16T09:19:41.374Z,48.23
2023-05-16T09:22:59.854Z,48.12
2023-05-16T09:26:01.657Z,48.01
2023-05-16T09:29:13.398Z,48.04
2023-05-16T09:32:17.381Z,47.97
2023-05-16T09:35:39.084Z,47.95
2023-05-16T09:38:41.746Z,47.89
2023-05-16T09:41:43.423Z,47.76
2023-05-16T09:44:54.572Z,47.52
2023-05-16T09:48:01.714Z,47.58
2023-05-16T09:51:06.607Z,47.48
2023-05-16T09:54:08.965Z,47.50
2023-05-16T09:57:10.671Z,47.66
2023-05-16T10:00:13.522Z,47.52
2023-05-16T10:03:15.655Z,47.20
2023-05-16T10:06:18.088Z,47.27
2023-05-16T10:09:22.474Z,47.04
2023-05-16T10:12:30.367Z,46.91
2023-05-16T10:15:32.407Z,46.95
2023-05-16T10:18:35.817Z,46.92
2023-05-16T10:21:40.173Z,46.66
2023-05-16T10:24:49.175Z,47.09
2023-05-16T10:27:51.661Z,47.04
2023-05-16T10:30:54.744Z,47.44
2023-05-16T10:33:57.749Z,47.41
2023-05-16T10:37:00.663Z,47.87
2023-05-16T10:40:05.909Z,47.97
2023-05-16T10:43:08.953Z,47.81
2023-05-16T10:46:11.535Z,47.57
2023-05-16T10:49:24.319Z,47.46
2023-05-16T10:52:35.033Z,47.57
2023-05-16T10:55:36.692Z,47.57
2023-05-16T10:58:38.620Z,47.20
2023-05-16T11:01:41.388Z,47.44
2023-05-16T11:04:48.810Z,47.15
2023-05-16T11:08:04.960Z,47.05
2023-05-16T11:11:41.896Z,47.18
2023-05-16T11:14:45.164Z,47.09
2023-05-16T11:17:47.788Z,46.83
2023-05-16T11:20:52.943Z,46.85
2023-05-16T11:24:30.082Z,47.03
2023-05-16T11:27:36.215Z,47.17
2023-05-16T11:30:43.143Z,47.22
2023-05-16T11:33:48.011Z,46.81
2023-05-16T11:36:49.962Z,47.06
2023-05-16T11:39:52.014Z,46.72
2023-05-16T11:42:53.621Z,46.92
2023-05-16T11:45:56.150Z,46.59
2023-05-16T11:48:57.920Z,46.66
2023-05-16T11:51:59.604Z,46.24
2023-05-16T11:55:01.867Z,46.44
2023-05-16T11:58:03.473Z,46.22
2023-05-16T12:01:05.638Z,46.25
2023-05-16T12:04:14.785Z,46.34
2023-05-16T12:07:16.641Z,46.30
2023-05-16T12:10:18.233Z,46.05
2023-05-16T12:13:21.780Z,45.88
2023-05-16T12:16:23.913Z,45.92
2023-05-16T12:19:26.869Z,45.71
2023-05-16T12:22:28.936Z,45.89
2023-05-16T12:25:33.072Z,45.85
2023-05-16T12:28:35.672Z,45.90
2023-05-16T12:31:40.558Z,45.91
2023-05-16T12:34:50.430Z,45.89
2023-05-16T12:37:53.162Z,45.75
2023-05-16T12:40:58.584Z,46.00
2023-05-16T12:44:07.822Z,45.67
2023-05-16T12:47:13.786Z,45.88
2023-05-16T12:50:17.629Z,46.01
2023-05-16T12:53:19.474Z,45.71
2023-05-16T12:56:21.642Z,45.83
2023-05-16T12:59:23.203Z,45.92
2023-05-16T13:02:26.439Z,45.65
2023-05-16T13:05:28.191Z,45.67
2023-05-16T13:08:30.203Z,45.93
2023-05-16T13:11:31.809Z,45.83
2023-05-16T13:14:33.404Z,45.83
2023-05-16T13:17:35.833Z,45.99
2023-05-16T13:20:38.992Z,45.85
2023-05-16T13:23:40.655Z,45.71
2023-05-16T13:26:42.259Z,45.96
2023-05-16T13:29:44.738Z,45.63
2023-05-16T13:32:46.397Z,45.55
2023-05-16T13:35:48.129Z,45.86
2023-05-16T13:38:49.800Z,45.92
2023-05-16T13:41:51.976Z,45.78
2023-05-16T13:44:53.593Z,45.62
2023-05-16T13:47:55.811Z,45.52
2023-05-16T13:50:57.411Z,45.50
2023-05-16T13:53:58.999Z,45.60
2023-05-16T13:57:02.321Z,45.04
2023-05-16T14:00:35.418Z,45.35
2023-05-16T14:03:36.613Z,45.35
2023-05-16T14:06:38.347Z,45.19
2023-05-16T14:09:39.929Z,45.31
2023-05-16T14:12:42.307Z,45.11
2023-05-16T14:15:43.965Z,45.28
2023-05-16T14:18:45.877Z,45.13
2023-05-16T14:21:47.558Z,44.99
2023-05-16T14:24:49.136Z,45.38
2023-05-16T14:27:51.162Z,45.28
2023-05-16T14:30:52.815Z,45.19
2023-05-16T14:33:54.399Z,45.04
2023-05-16T14:36:56.106Z,45.34
2023-05-16T14:39:57.786Z,45.26
2023-05-16T14:42:59.356Z,44.95
2023-05-16T14:46:01.013Z,45.05
2023-05-16T14:49:02.714Z,45.26
2023-05-16T14:52:04.533Z,45.32
2023-05-16T14:55:06.766Z,45.34
2023-05-16T14:58:08.643Z,45.32
2023-05-16T15:01:10.370Z,45.49
2023-05-16T15:04:12.064Z,45.76
2023-05-16T15:07:13.650Z,45.56
2023-05-16T15:10:15.323Z,45.68
2023-05-16T15:13:16.911Z,45.29
2023-05-16T15:16:18.536Z,45.50
2023-05-16T15:19:20.152Z,45.25
2023-05-16T15:22:21.718Z,45.53
2023-05-16T15:25:23.323Z,45.40
2023-05-16T15:28:24.921Z,45.64
2023-05-16T15:31:27.107Z,45.52
2023-05-16T15:34:28.800Z,45.68
2023-05-16T15:37:30.372Z,45.43
2023-05-16T15:40:32.011Z,45.65
2023-05-16T15:43:33.544Z,45.57
2023-05-16T15:46:35.205Z,45.67
2023-05-16T15:49:36.976Z,45.62
2023-05-16T15:52:38.668Z,45.63
2023-05-16T15:55:40.520Z,45.80
2023-05-16T15:58:42.188Z,45.80
2023-05-16T16:01:44.113Z,45.62
2023-05-16T16:04:46.150Z,45.77
2023-05-16T16:07:47.684Z,45.75
2023-05-16T16:10:49.372Z,45.67
2023-05-16T16:13:51.389Z,45.83
2023-05-16T16:16:53.285Z,45.92
2023-05-16T16:19:54.840Z,45.83
2023-05-16T16:22:56.551Z,46.04
2023-05-16T16:25:58.358Z,45.91
2023-05-16T16:29:00.293Z,46.03
2023-05-16T16:32:01.901Z,46.14
2023-05-16T16:35:05.458Z,45.92
2023-05-16T16:38:07.527Z,45.99
2023-05-16T16:41:09.298Z,46.11
2023-05-16T16:44:10.950Z,46.12
2023-05-16T16:47:12.715Z,46.06
2023-05-16T16:50:14.479Z,45.93
2023-05-16T16:53:16.267Z,46.08
2023-05-16T16:56:17.861Z,45.93
2023-05-16T16:59:19.622Z,45.95
2023-05-16T17:02:21.418Z,45.95
2023-05-16T17:05:23.101Z,46.09
2023-05-16T17:08:25.083Z,46.08
2023-05-16T17:11:26.981Z,46.08
2023-05-16T17:14:28.564Z,46.09
2023-05-16T17:17:30.239Z,45.99
2023-05-16T17:20:31.956Z,45.97
2023-05-16T17:23:33.532Z,45.96
2023-05-16T17:26:35.815Z,46.11
2023-05-16T17:29:37.521Z,45.92
2023-05-16T17:32:40.062Z,45.99
2023-05-16T17:35:41.789Z,45.92
2023-05-16T17:38:43.358Z,46.12
2023-05-16T17:41:45.013Z,45.97
2023-05-16T17:44:46.628Z,45.93
2023-05-16T17:47:48.766Z,45.88
2023-05-16T17:50:50.500Z,46.00
2023-05-16T17:53:52.696Z,45.99
2023-05-16T17:56:54.751Z,46.12
2023-05-16T17:59:56.375Z,46.03
2023-05-16T18:02:58.069Z,46.03
2023-05-16T18:05:59.946Z,46.01
2023-05-16T18:09:05.202Z,46.02
2023-05-16T18:12:07.168Z,45.98
2023-05-16T18:15:10.691Z,46.03
2023-05-16T18:18:12.787Z,46.04
2023-05-16T18:21:14.485Z,46.12
2023-05-16T18:24:16.562Z,46.14
2023-05-16T18:27:18.189Z,46.09
2023-05-16T18:30:19.808Z,46.23
2023-05-16T18:33:21.758Z,46.03
2023-05-16T18:36:23.474Z,46.07
2023-05-16T18:39:25.066Z,46.10
2023-05-16T18:42:27.353Z,46.13
2023-05-16T18:45:30.199Z,46.06
2023-05-16T18:48:33.369Z,46.14
2023-05-16T18:51:36.204Z,46.21
2023-05-16T18:54:39.016Z,46.25
2023-05-16T18:57:40.630Z,46.25
2023-05-16T19:00:42.234Z,46.27
2023-05-16T19:03:43.954Z,46.22
2023-05-16T19:06:46.344Z,46.30
2023-05-16T19:09:48.077Z,46.27
2023-05-16T19:12:49.752Z,46.42
2023-05-16T19:15:53.379Z,46.29
2023-05-16T19:18:55.228Z,46.33
2023-05-16T19:21:56.967Z,46.32
2023-05-16T19:24:58.581Z,46.65
2023-05-16T19:28:00.229Z,46.68
2023-05-16T19:31:01.923Z,46.56
2023-05-16T19:34:03.599Z,46.31
2023-05-16T19:37:05.514Z,46.30
2023-05-16T19:40:07.964Z,46.33
2023-05-16T19:43:09.563Z,46.37
2023-05-16T19:46:13.471Z,46.37
2023-05-16T19:49:18.876Z,46.30
2023-05-16T19:52:22.093Z,46.43
2023-05-16T19:55:25.271Z,46.46
2023-05-16T19:58:26.958Z,46.34
2023-05-16T20:01:28.543Z,46.50
2023-05-16T20:04:30.350Z,46.46
2023-05-16T20:07:31.979Z,46.53
2023-05-16T20:10:34.909Z,46.71
2023-05-16T20:13:36.512Z,46.42
2023-05-16T20:16:38.131Z,46.53
2023-05-16T20:19:43.916Z,46.40
2023-05-16T20:22:45.747Z,46.46
2023-05-16T20:25:47.376Z,46.46
2023-05-16T20:28:49.004Z,46.51
2023-05-16T20:31:50.567Z,46.60
2023-05-16T20:34:52.313Z,46.31
2023-05-16T20:37:54.089Z,46.49
2023-05-16T20:40:56.309Z,46.53
2023-05-16T20:43:57.967Z,46.58
2023-05-16T20:46:59.592Z,46.57
2023-05-16T20:50:01.190Z,46.57
2023-05-16T20:53:03.462Z,46.63
2023-05-16T20:56:05.434Z,46.63
2023-05-16T20:59:06.977Z,46.67
2023-05-16T21:02:11.768Z,46.67
2023-05-16T21:05:24.133Z,46.67
2023-05-16T21:08:27.391Z,46.70
2023-05-16T21:11:29.245Z,46.64
2023-05-16T21:14:30.831Z,46.61
2023-05-16T21:17:32.509Z,46.69
2023-05-16T21:20:34.213Z,46.66
2023-05-16T21:23:35.916Z,46.72
2023-05-16T21:26:37.591Z,46.70
2023-05-16T21:29:39.201Z,46.65
2023-05-16T21:32:40.905Z,46.72
2023-05-16T21:35:42.547Z,46.73
2023-05-16T21:38:44.253Z,46.76
2023-05-16T21:41:45.819Z,46.70
2023-05-16T21:44:47.395Z,46.77
2023-05-16T21:47:49.022Z,46.84
2023-05-16T21:50:51.049Z,46.79
2023-05-16T21:53:52.654Z,46.92
2023-05-16T21:56:54.250Z,46.90
2023-05-16T21:59:55.841Z,46.85
2023-05-16T22:02:57.480Z,46.92
2023-05-16T22:05:59.216Z,47.01
2023-05-16T22:09:01.851Z,46.98
2023-05-16T22:12:03.649Z,46.99
2023-05-16T22:15:05.789Z,46.88
2023-05-16T22:18:07.466Z,47.11
2023-05-16T22:21:09.149Z,47.08
2023-05-16T22:24:11.853Z,47.27
2023-05-16T22:27:13.525Z,47.16
2023-05-16T22:30:15.157Z,47.22
2023-05-16T22:33:16.898Z,47.17
2023-05-16T22:36:18.549Z,47.24
2023-05-16T22:39:20.139Z,47.28
2023-05-16T22:42:21.924Z,47.42
2023-05-16T22:45:23.501Z,47.27
2023-05-16T22:48:25.165Z,47.39
2023-05-16T22:51:26.862Z,47.90
2023-05-16T22:54:28.399Z,47.70
2023-05-16T22:57:29.976Z,47.60
2023-05-16T23:00:31.560Z,47.66
2023-05-16T23:03:34.258Z,47.64
2023-05-16T23:06:36.097Z,47.64
2023-05-16T23:09:37.782Z,47.72
2023-05-16T23:12:39.531Z,47.75
2023-05-16T23:15:41.220Z,47.72
2023-05-16T23:18:42.990Z,47.93
2023-05-16T23:21:44.779Z,47.85
2023-05-16T23:24:46.348Z,47.91
2023-05-16T23:27:48.098Z,48.00
2023-05-16T23:30:49.894Z,47.83
2023-05-16T23:33:51.493Z,47.98
2023-05-16T23:36:53.096Z,48.09
2023-05-16T23:39:54.677Z,48.17
2023-05-16T23:42:56.482Z,48.13
2023-05-16T23:45:58.032Z,48.12
2023-05-16T23:48:59.714Z,47.96
2023-05-16T23:52:01.395Z,47.97
2023-05-16T23:55:03.022Z,48.13
2023-05-16T23:58:04.676Z,48.02
